EGNS/IOM METAR and TAF weather

Enter ICAO airport designator
Station Type Date Time Source
EGNS METAR 2021/02/28 02:50 UTC NOAA

EGNS 280250Z 05005KT 9999 FEW005 04/04 Q1039


Station Type Date Time Source
EGNS Decoded METAR 2021/02/28 02:50 UTC NOAA

Isle Of Man / Ronaldsway Airport, United Kingdom (EGNS) 54-05N 004-38W 0M
Feb 27, 2021 - 09:50 PM EST / 2021.02.28 0250 UTC
Wind: from the NE (050 degrees) at 6 MPH (5 KT):0
Visibility: greater than 7 mile(s):0
Sky conditions: mostly clear
Temperature: 39 F (4 C)
Dew Point: 39 F (4 C)
Relative Humidity: 100%
Pressure (altimeter): 30.68 in. Hg (1039 hPa)
ob: EGNS 280250Z 05005KT 9999 FEW005 04/04 Q1039
cycle: 3

Station Type Date Time Source
EGNS TAF 2019/01/16 05:00 UTC NOAA

TAF EGNS 160500 Z 1606/1615 28020KT 9999 FEW010 BKN025
TEMPO 1606/1609 6000 RA BKN010 PROB30
TEMPO 1613/1615 7000 -SHRA

Example: see airport list